sensor_id;sensor_type;location;lat;lon;timestamp;P1;durP1;ratioP1;P2;durP2;ratioP2
55210;SDS011;41082;52.822;6.666;2023-06-14T00:00:40;4.55;;;1.02;;
55210;SDS011;41082;52.822;6.666;2023-06-14T00:03:08;4.57;;;1.00;;
55210;SDS011;41082;52.822;6.666;2023-06-14T00:05:38;8.45;;;1.35;;
55210;SDS011;41082;52.822;6.666;2023-06-14T00:08:07;7.72;;;0.88;;
55210;SDS011;41082;52.822;6.666;2023-06-14T00:10:34;4.50;;;0.75;;
55210;SDS011;41082;52.822;6.666;2023-06-14T00:13:03;3.28;;;0.73;;
55210;SDS011;41082;52.822;6.666;2023-06-14T00:15:30;10.85;;;1.70;;
55210;SDS011;41082;52.822;6.666;2023-06-14T00:17:56;3.63;;;0.82;;
55210;SDS011;41082;52.822;6.666;2023-06-14T00:20:25;6.15;;;0.88;;
55210;SDS011;41082;52.822;6.666;2023-06-14T00:22:52;3.33;;;0.77;;
55210;SDS011;41082;52.822;6.666;2023-06-14T00:25:19;2.35;;;0.70;;
55210;SDS011;41082;52.822;6.666;2023-06-14T00:27:44;5.18;;;0.80;;
55210;SDS011;41082;52.822;6.666;2023-06-14T00:30:11;5.28;;;0.77;;
55210;SDS011;41082;52.822;6.666;2023-06-14T00:32:37;4.25;;;1.00;;
55210;SDS011;41082;52.822;6.666;2023-06-14T00:35:02;2.78;;;0.80;;
55210;SDS011;41082;52.822;6.666;2023-06-14T00:37:28;2.85;;;0.80;;
55210;SDS011;41082;52.822;6.666;2023-06-14T00:39:54;3.05;;;0.80;;
55210;SDS011;41082;52.822;6.666;2023-06-14T00:42:23;5.82;;;0.90;;
55210;SDS011;41082;52.822;6.666;2023-06-14T00:44:51;4.43;;;0.80;;
55210;SDS011;41082;52.822;6.666;2023-06-14T00:47:17;2.85;;;0.90;;
55210;SDS011;41082;52.822;6.666;2023-06-14T00:49:45;4.13;;;0.60;;
55210;SDS011;41082;52.822;6.666;2023-06-14T00:52:16;5.50;;;0.90;;
55210;SDS011;41082;52.822;6.666;2023-06-14T00:54:42;1.92;;;0.80;;
55210;SDS011;41082;52.822;6.666;2023-06-14T00:57:09;2.22;;;1.08;;
55210;SDS011;41082;52.822;6.666;2023-06-14T00:59:36;3.63;;;0.77;;
55210;SDS011;41082;52.822;6.666;2023-06-14T01:04:32;5.03;;;1.20;;
55210;SDS011;41082;52.822;6.666;2023-06-14T01:10:08;5.18;;;0.70;;
55210;SDS011;41082;52.822;6.666;2023-06-14T01:15:40;3.00;;;0.60;;
55210;SDS011;41082;52.822;6.666;2023-06-14T01:18:08;3.90;;;0.55;;
55210;SDS011;41082;52.822;6.666;2023-06-14T01:20:42;3.45;;;0.70;;
55210;SDS011;41082;52.822;6.666;2023-06-14T01:23:09;1.95;;;0.60;;
55210;SDS011;41082;52.822;6.666;2023-06-14T01:25:37;2.08;;;0.80;;
55210;SDS011;41082;52.822;6.666;2023-06-14T01:28:04;2.83;;;0.90;;
55210;SDS011;41082;52.822;6.666;2023-06-14T01:30:35;3.50;;;0.90;;
55210;SDS011;41082;52.822;6.666;2023-06-14T01:33:10;3.70;;;0.93;;
55210;SDS011;41082;52.822;6.666;2023-06-14T01:35:38;2.38;;;0.50;;
55210;SDS011;41082;52.822;6.666;2023-06-14T01:38:06;2.97;;;0.90;;
55210;SDS011;41082;52.822;6.666;2023-06-14T01:40:33;1.33;;;0.65;;
55210;SDS011;41082;52.822;6.666;2023-06-14T01:42:59;3.85;;;0.93;;
55210;SDS011;41082;52.822;6.666;2023-06-14T01:45:27;2.60;;;0.73;;
55210;SDS011;41082;52.822;6.666;2023-06-14T01:47:54;3.28;;;1.08;;
55210;SDS011;41082;52.822;6.666;2023-06-14T01:50:20;3.45;;;0.82;;
55210;SDS011;41082;52.822;6.666;2023-06-14T01:52:46;3.00;;;0.90;;
55210;SDS011;41082;52.822;6.666;2023-06-14T01:55:11;3.95;;;1.35;;
55210;SDS011;41082;52.822;6.666;2023-06-14T01:57:37;3.15;;;0.80;;
55210;SDS011;41082;52.822;6.666;2023-06-14T02:00:05;3.17;;;0.88;;
55210;SDS011;41082;52.822;6.666;2023-06-14T02:02:35;5.75;;;1.00;;
55210;SDS011;41082;52.822;6.666;2023-06-14T02:05:01;1.40;;;0.70;;
55210;SDS011;41082;52.822;6.666;2023-06-14T02:07:26;2.60;;;0.80;;
55210;SDS011;41082;52.822;6.666;2023-06-14T02:09:52;2.80;;;1.00;;
55210;SDS011;41082;52.822;6.666;2023-06-14T02:12:17;3.80;;;1.05;;
55210;SDS011;41082;52.822;6.666;2023-06-14T02:14:43;2.40;;;1.10;;
55210;SDS011;41082;52.822;6.666;2023-06-14T02:17:09;2.83;;;0.82;;
55210;SDS011;41082;52.822;6.666;2023-06-14T02:19:35;2.80;;;0.75;;
55210;SDS011;41082;52.822;6.666;2023-06-14T02:22:01;3.60;;;0.80;;
55210;SDS011;41082;52.822;6.666;2023-06-14T02:24:26;4.00;;;0.90;;
55210;SDS011;41082;52.822;6.666;2023-06-14T02:26:52;4.05;;;0.70;;
55210;SDS011;41082;52.822;6.666;2023-06-14T02:29:18;6.35;;;1.05;;
55210;SDS011;41082;52.822;6.666;2023-06-14T02:31:43;2.78;;;0.65;;
55210;SDS011;41082;52.822;6.666;2023-06-14T02:34:09;2.60;;;0.93;;
55210;SDS011;41082;52.822;6.666;2023-06-14T02:36:35;4.68;;;0.80;;
55210;SDS011;41082;52.822;6.666;2023-06-14T02:39:07;3.20;;;0.82;;
55210;SDS011;41082;52.822;6.666;2023-06-14T02:41:34;3.47;;;0.70;;
55210;SDS011;41082;52.822;6.666;2023-06-14T02:44:00;4.38;;;0.60;;
55210;SDS011;41082;52.822;6.666;2023-06-14T02:46:25;2.85;;;0.95;;
55210;SDS011;41082;52.822;6.666;2023-06-14T02:48:51;4.47;;;1.00;;
55210;SDS011;41082;52.822;6.666;2023-06-14T02:51:17;2.47;;;0.75;;
55210;SDS011;41082;52.822;6.666;2023-06-14T02:53:42;3.85;;;1.00;;
55210;SDS011;41082;52.822;6.666;2023-06-14T02:56:08;1.92;;;0.60;;
55210;SDS011;41082;52.822;6.666;2023-06-14T02:58:36;2.72;;;0.80;;
55210;SDS011;41082;52.822;6.666;2023-06-14T03:01:02;3.67;;;0.95;;
55210;SDS011;41082;52.822;6.666;2023-06-14T03:03:28;2.90;;;0.95;;
55210;SDS011;41082;52.822;6.666;2023-06-14T03:05:53;2.55;;;0.60;;
55210;SDS011;41082;52.822;6.666;2023-06-14T03:08:19;4.07;;;0.90;;
55210;SDS011;41082;52.822;6.666;2023-06-14T03:10:48;5.65;;;1.00;;
55210;SDS011;41082;52.822;6.666;2023-06-14T03:13:15;4.53;;;1.30;;
55210;SDS011;41082;52.822;6.666;2023-06-14T03:15:47;5.30;;;1.05;;
55210;SDS011;41082;52.822;6.666;2023-06-14T03:18:15;1.55;;;0.70;;
55210;SDS011;41082;52.822;6.666;2023-06-14T03:20:41;3.47;;;0.80;;
55210;SDS011;41082;52.822;6.666;2023-06-14T03:23:07;3.38;;;0.80;;
55210;SDS011;41082;52.822;6.666;2023-06-14T03:25:33;4.20;;;1.23;;
55210;SDS011;41082;52.822;6.666;2023-06-14T03:28:01;4.05;;;0.93;;
55210;SDS011;41082;52.822;6.666;2023-06-14T03:30:27;1.90;;;0.80;;
55210;SDS011;41082;52.822;6.666;2023-06-14T03:32:53;3.33;;;0.85;;
55210;SDS011;41082;52.822;6.666;2023-06-14T03:35:20;4.85;;;1.05;;
55210;SDS011;41082;52.822;6.666;2023-06-14T03:37:46;7.22;;;1.40;;
55210;SDS011;41082;52.822;6.666;2023-06-14T03:40:13;4.43;;;0.90;;
55210;SDS011;41082;52.822;6.666;2023-06-14T03:42:39;3.78;;;1.33;;
55210;SDS011;41082;52.822;6.666;2023-06-14T03:45:05;3.33;;;1.05;;
55210;SDS011;41082;52.822;6.666;2023-06-14T03:47:31;2.80;;;0.80;;
55210;SDS011;41082;52.822;6.666;2023-06-14T03:49:57;4.63;;;1.23;;
55210;SDS011;41082;52.822;6.666;2023-06-14T03:52:23;2.85;;;1.10;;
55210;SDS011;41082;52.822;6.666;2023-06-14T03:54:48;2.30;;;0.90;;
55210;SDS011;41082;52.822;6.666;2023-06-14T03:57:14;2.00;;;1.00;;
55210;SDS011;41082;52.822;6.666;2023-06-14T03:59:40;6.00;;;0.95;;
55210;SDS011;41082;52.822;6.666;2023-06-14T04:02:06;3.55;;;1.02;;
55210;SDS011;41082;52.822;6.666;2023-06-14T04:04:34;3.15;;;1.00;;
55210;SDS011;41082;52.822;6.666;2023-06-14T04:07:00;3.45;;;1.00;;
55210;SDS011;41082;52.822;6.666;2023-06-14T04:09:28;2.72;;;1.10;;
55210;SDS011;41082;52.822;6.666;2023-06-14T04:11:54;5.32;;;1.08;;
55210;SDS011;41082;52.822;6.666;2023-06-14T04:14:21;3.58;;;1.25;;
55210;SDS011;41082;52.822;6.666;2023-06-14T04:16:47;2.42;;;0.98;;
55210;SDS011;41082;52.822;6.666;2023-06-14T04:19:13;3.78;;;0.75;;
55210;SDS011;41082;52.822;6.666;2023-06-14T04:21:39;3.70;;;1.17;;
55210;SDS011;41082;52.822;6.666;2023-06-14T04:24:05;4.32;;;1.17;;
55210;SDS011;41082;52.822;6.666;2023-06-14T04:26:32;4.35;;;1.00;;
55210;SDS011;41082;52.822;6.666;2023-06-14T04:29:01;3.63;;;0.90;;
55210;SDS011;41082;52.822;6.666;2023-06-14T04:31:28;2.45;;;1.30;;
55210;SDS011;41082;52.822;6.666;2023-06-14T04:33:54;5.28;;;1.27;;
55210;SDS011;41082;52.822;6.666;2023-06-14T04:36:20;4.35;;;1.55;;
55210;SDS011;41082;52.822;6.666;2023-06-14T04:38:47;3.63;;;1.30;;
55210;SDS011;41082;52.822;6.666;2023-06-14T04:41:14;4.25;;;1.08;;
55210;SDS011;41082;52.822;6.666;2023-06-14T04:43:41;4.75;;;1.08;;
55210;SDS011;41082;52.822;6.666;2023-06-14T04:46:08;5.10;;;1.38;;
55210;SDS011;41082;52.822;6.666;2023-06-14T04:48:36;3.20;;;1.30;;
55210;SDS011;41082;52.822;6.666;2023-06-14T04:51:05;3.22;;;1.13;;
55210;SDS011;41082;52.822;6.666;2023-06-14T04:53:32;2.58;;;1.20;;
55210;SDS011;41082;52.822;6.666;2023-06-14T04:55:57;3.47;;;1.60;;
55210;SDS011;41082;52.822;6.666;2023-06-14T04:58:23;2.78;;;1.40;;
55210;SDS011;41082;52.822;6.666;2023-06-14T05:00:48;7.97;;;1.27;;
55210;SDS011;41082;52.822;6.666;2023-06-14T05:03:14;3.55;;;1.73;;
55210;SDS011;41082;52.822;6.666;2023-06-14T05:05:41;6.47;;;1.58;;
55210;SDS011;41082;52.822;6.666;2023-06-14T05:08:07;2.05;;;1.20;;
55210;SDS011;41082;52.822;6.666;2023-06-14T05:10:33;6.47;;;1.88;;
55210;SDS011;41082;52.822;6.666;2023-06-14T05:13:01;3.35;;;1.52;;
55210;SDS011;41082;52.822;6.666;2023-06-14T05:15:27;4.57;;;1.58;;
55210;SDS011;41082;52.822;6.666;2023-06-14T05:17:54;2.45;;;1.27;;
55210;SDS011;41082;52.822;6.666;2023-06-14T05:20:21;4.60;;;1.83;;
55210;SDS011;41082;52.822;6.666;2023-06-14T05:22:52;5.10;;;1.40;;
55210;SDS011;41082;52.822;6.666;2023-06-14T05:25:18;3.53;;;2.25;;
55210;SDS011;41082;52.822;6.666;2023-06-14T05:27:45;4.57;;;1.83;;
55210;SDS011;41082;52.822;6.666;2023-06-14T05:30:11;4.55;;;1.80;;
55210;SDS011;41082;52.822;6.666;2023-06-14T05:32:37;7.22;;;1.55;;
55210;SDS011;41082;52.822;6.666;2023-06-14T05:35:03;5.07;;;1.58;;
55210;SDS011;41082;52.822;6.666;2023-06-14T05:37:29;3.55;;;1.30;;
55210;SDS011;41082;52.822;6.666;2023-06-14T05:39:56;5.03;;;1.52;;
55210;SDS011;41082;52.822;6.666;2023-06-14T05:42:21;5.20;;;1.55;;
55210;SDS011;41082;52.822;6.666;2023-06-14T05:44:47;3.78;;;1.45;;
55210;SDS011;41082;52.822;6.666;2023-06-14T05:47:12;6.57;;;1.45;;
55210;SDS011;41082;52.822;6.666;2023-06-14T05:49:38;3.20;;;1.02;;
55210;SDS011;41082;52.822;6.666;2023-06-14T05:52:04;3.83;;;1.45;;
55210;SDS011;41082;52.822;6.666;2023-06-14T05:54:30;5.72;;;1.77;;
55210;SDS011;41082;52.822;6.666;2023-06-14T05:56:55;3.35;;;1.30;;
55210;SDS011;41082;52.822;6.666;2023-06-14T05:59:26;6.10;;;1.80;;
55210;SDS011;41082;52.822;6.666;2023-06-14T06:01:52;5.35;;;1.70;;
55210;SDS011;41082;52.822;6.666;2023-06-14T06:04:17;3.55;;;1.13;;
55210;SDS011;41082;52.822;6.666;2023-06-14T06:06:43;5.35;;;1.50;;
55210;SDS011;41082;52.822;6.666;2023-06-14T06:09:10;3.83;;;1.65;;
55210;SDS011;41082;52.822;6.666;2023-06-14T06:11:35;4.72;;;1.38;;
55210;SDS011;41082;52.822;6.666;2023-06-14T06:14:01;6.72;;;1.30;;
55210;SDS011;41082;52.822;6.666;2023-06-14T06:16:27;3.47;;;1.52;;
55210;SDS011;41082;52.822;6.666;2023-06-14T06:18:53;3.38;;;1.38;;
55210;SDS011;41082;52.822;6.666;2023-06-14T06:21:18;4.45;;;1.23;;
55210;SDS011;41082;52.822;6.666;2023-06-14T06:23:44;3.90;;;1.27;;
55210;SDS011;41082;52.822;6.666;2023-06-14T06:26:10;2.95;;;1.50;;
55210;SDS011;41082;52.822;6.666;2023-06-14T06:28:35;4.55;;;1.27;;
55210;SDS011;41082;52.822;6.666;2023-06-14T06:31:01;3.13;;;1.10;;
55210;SDS011;41082;52.822;6.666;2023-06-14T06:33:26;3.88;;;1.10;;
55210;SDS011;41082;52.822;6.666;2023-06-14T06:35:52;3.47;;;1.00;;
55210;SDS011;41082;52.822;6.666;2023-06-14T06:38:18;4.28;;;1.20;;
55210;SDS011;41082;52.822;6.666;2023-06-14T06:40:44;3.40;;;0.90;;
55210;SDS011;41082;52.822;6.666;2023-06-14T06:43:09;4.35;;;1.10;;
55210;SDS011;41082;52.822;6.666;2023-06-14T06:45:38;3.78;;;1.20;;
55210;SDS011;41082;52.822;6.666;2023-06-14T06:48:05;2.65;;;1.10;;
55210;SDS011;41082;52.822;6.666;2023-06-14T06:50:31;2.30;;;0.80;;
55210;SDS011;41082;52.822;6.666;2023-06-14T06:52:56;4.53;;;0.95;;
55210;SDS011;41082;52.822;6.666;2023-06-14T06:55:22;2.33;;;0.88;;
55210;SDS011;41082;52.822;6.666;2023-06-14T06:57:48;3.22;;;0.88;;
55210;SDS011;41082;52.822;6.666;2023-06-14T07:00:15;4.43;;;1.00;;
55210;SDS011;41082;52.822;6.666;2023-06-14T07:02:42;2.05;;;0.73;;
55210;SDS011;41082;52.822;6.666;2023-06-14T07:05:08;3.45;;;0.80;;
55210;SDS011;41082;52.822;6.666;2023-06-14T07:07:34;4.63;;;1.10;;
55210;SDS011;41082;52.822;6.666;2023-06-14T07:09:59;2.47;;;0.80;;
55210;SDS011;41082;52.822;6.666;2023-06-14T07:12:25;3.67;;;0.95;;
55210;SDS011;41082;52.822;6.666;2023-06-14T07:14:51;4.90;;;0.80;;
55210;SDS011;41082;52.822;6.666;2023-06-14T07:17:17;3.53;;;0.80;;
55210;SDS011;41082;52.822;6.666;2023-06-14T07:19:42;3.03;;;0.80;;
55210;SDS011;41082;52.822;6.666;2023-06-14T07:22:08;5.90;;;0.93;;
55210;SDS011;41082;52.822;6.666;2023-06-14T07:24:33;3.22;;;1.00;;
55210;SDS011;41082;52.822;6.666;2023-06-14T07:27:01;5.45;;;0.60;;
55210;SDS011;41082;52.822;6.666;2023-06-14T07:29:28;4.93;;;0.80;;
55210;SDS011;41082;52.822;6.666;2023-06-14T07:31:53;13.43;;;1.08;;
55210;SDS011;41082;52.822;6.666;2023-06-14T07:34:19;5.05;;;0.88;;
55210;SDS011;41082;52.822;6.666;2023-06-14T07:36:45;2.17;;;0.93;;
55210;SDS011;41082;52.822;6.666;2023-06-14T07:39:11;16.10;;;1.20;;
55210;SDS011;41082;52.822;6.666;2023-06-14T07:41:37;4.20;;;1.00;;
55210;SDS011;41082;52.822;6.666;2023-06-14T07:44:02;5.32;;;0.77;;
55210;SDS011;41082;52.822;6.666;2023-06-14T07:46:28;2.08;;;0.70;;
55210;SDS011;41082;52.822;6.666;2023-06-14T07:48:53;3.25;;;0.70;;
55210;SDS011;41082;52.822;6.666;2023-06-14T07:51:19;3.50;;;0.82;;
55210;SDS011;41082;52.822;6.666;2023-06-14T07:53:46;2.60;;;1.10;;
55210;SDS011;41082;52.822;6.666;2023-06-14T07:56:12;3.53;;;1.00;;
55210;SDS011;41082;52.822;6.666;2023-06-14T07:58:38;2.38;;;0.75;;
55210;SDS011;41082;52.822;6.666;2023-06-14T08:01:03;5.45;;;0.57;;
55210;SDS011;41082;52.822;6.666;2023-06-14T08:03:31;5.38;;;0.70;;
55210;SDS011;41082;52.822;6.666;2023-06-14T08:05:57;3.80;;;0.60;;
55210;SDS011;41082;52.822;6.666;2023-06-14T08:08:23;4.68;;;1.05;;
55210;SDS011;41082;52.822;6.666;2023-06-14T08:10:48;2.58;;;0.50;;
55210;SDS011;41082;52.822;6.666;2023-06-14T08:13:14;1.20;;;0.50;;
55210;SDS011;41082;52.822;6.666;2023-06-14T08:15:40;1.52;;;0.50;;
55210;SDS011;41082;52.822;6.666;2023-06-14T08:18:05;3.05;;;0.50;;
55210;SDS011;41082;52.822;6.666;2023-06-14T08:20:31;2.17;;;0.50;;
55210;SDS011;41082;52.822;6.666;2023-06-14T08:22:57;1.42;;;0.50;;
55210;SDS011;41082;52.822;6.666;2023-06-14T08:25:23;3.67;;;0.50;;
55210;SDS011;41082;52.822;6.666;2023-06-14T08:27:49;5.90;;;0.68;;
55210;SDS011;41082;52.822;6.666;2023-06-14T08:30:15;1.45;;;0.40;;
55210;SDS011;41082;52.822;6.666;2023-06-14T08:32:42;1.77;;;0.50;;
55210;SDS011;41082;52.822;6.666;2023-06-14T08:35:08;2.90;;;0.70;;
55210;SDS011;41082;52.822;6.666;2023-06-14T08:37:37;1.35;;;0.60;;
55210;SDS011;41082;52.822;6.666;2023-06-14T08:42:32;2.90;;;0.40;;
55210;SDS011;41082;52.822;6.666;2023-06-14T08:44:58;2.90;;;0.60;;
55210;SDS011;41082;52.822;6.666;2023-06-14T08:47:25;3.58;;;0.63;;
55210;SDS011;41082;52.822;6.666;2023-06-14T08:49:54;2.97;;;0.70;;
55210;SDS011;41082;52.822;6.666;2023-06-14T08:52:22;2.05;;;0.50;;
55210;SDS011;41082;52.822;6.666;2023-06-14T08:54:55;1.35;;;0.35;;
55210;SDS011;41082;52.822;6.666;2023-06-14T08:57:21;2.35;;;0.82;;
55210;SDS011;41082;52.822;6.666;2023-06-14T08:59:47;4.18;;;0.50;;
55210;SDS011;41082;52.822;6.666;2023-06-14T09:02:18;1.75;;;0.47;;
55210;SDS011;41082;52.822;6.666;2023-06-14T09:04:44;2.85;;;0.60;;
55210;SDS011;41082;52.822;6.666;2023-06-14T09:07:10;3.55;;;0.52;;
55210;SDS011;41082;52.822;6.666;2023-06-14T09:09:38;2.38;;;0.60;;
55210;SDS011;41082;52.822;6.666;2023-06-14T09:12:06;2.50;;;0.60;;
55210;SDS011;41082;52.822;6.666;2023-06-14T09:14:36;2.42;;;0.70;;
55210;SDS011;41082;52.822;6.666;2023-06-14T09:17:04;4.18;;;0.50;;
55210;SDS011;41082;52.822;6.666;2023-06-14T09:19:30;2.95;;;0.73;;
55210;SDS011;41082;52.822;6.666;2023-06-14T09:21:56;2.90;;;0.40;;
55210;SDS011;41082;52.822;6.666;2023-06-14T09:24:23;2.50;;;0.52;;
55210;SDS011;41082;52.822;6.666;2023-06-14T09:26:50;1.95;;;0.50;;
55210;SDS011;41082;52.822;6.666;2023-06-14T09:29:17;7.75;;;1.38;;
55210;SDS011;41082;52.822;6.666;2023-06-14T09:31:43;2.65;;;0.50;;
55210;SDS011;41082;52.822;6.666;2023-06-14T09:34:11;1.90;;;0.50;;
55210;SDS011;41082;52.822;6.666;2023-06-14T09:36:37;5.32;;;0.57;;
55210;SDS011;41082;52.822;6.666;2023-06-14T09:39:05;1.67;;;0.63;;
55210;SDS011;41082;52.822;6.666;2023-06-14T09:41:37;5.53;;;0.70;;
55210;SDS011;41082;52.822;6.666;2023-06-14T09:44:05;3.63;;;0.40;;
55210;SDS011;41082;52.822;6.666;2023-06-14T09:46:32;3.53;;;0.40;;
55210;SDS011;41082;52.822;6.666;2023-06-14T09:48:58;4.18;;;0.40;;
55210;SDS011;41082;52.822;6.666;2023-06-14T09:51:24;4.68;;;0.50;;
55210;SDS011;41082;52.822;6.666;2023-06-14T09:53:51;1.10;;;0.40;;
55210;SDS011;41082;52.822;6.666;2023-06-14T09:56:37;2.83;;;0.40;;
55210;SDS011;41082;52.822;6.666;2023-06-14T09:59:06;3.25;;;0.50;;
55210;SDS011;41082;52.822;6.666;2023-06-14T10:01:34;1.25;;;0.30;;
55210;SDS011;41082;52.822;6.666;2023-06-14T10:04:06;2.40;;;0.73;;
55210;SDS011;41082;52.822;6.666;2023-06-14T10:06:34;1.77;;;0.40;;
55210;SDS011;41082;52.822;6.666;2023-06-14T10:09:03;2.17;;;0.30;;
55210;SDS011;41082;52.822;6.666;2023-06-14T10:11:30;2.53;;;0.35;;
55210;SDS011;41082;52.822;6.666;2023-06-14T10:13:56;2.80;;;0.38;;
55210;SDS011;41082;52.822;6.666;2023-06-14T10:16:24;2.20;;;0.40;;
55210;SDS011;41082;52.822;6.666;2023-06-14T10:19:07;3.15;;;0.40;;
55210;SDS011;41082;52.822;6.666;2023-06-14T10:24:46;4.47;;;0.40;;
55210;SDS011;41082;52.822;6.666;2023-06-14T10:27:13;2.03;;;0.43;;
55210;SDS011;41082;52.822;6.666;2023-06-14T10:32:23;3.08;;;0.50;;
55210;SDS011;41082;52.822;6.666;2023-06-14T10:34:59;2.08;;;0.40;;
55210;SDS011;41082;52.822;6.666;2023-06-14T10:37:34;4.32;;;0.40;;
55210;SDS011;41082;52.822;6.666;2023-06-14T10:40:00;1.83;;;0.30;;
55210;SDS011;41082;52.822;6.666;2023-06-14T10:42:27;2.33;;;0.40;;
55210;SDS011;41082;52.822;6.666;2023-06-14T10:44:57;2.33;;;0.40;;
55210;SDS011;41082;52.822;6.666;2023-06-14T10:47:32;1.42;;;0.40;;
55210;SDS011;41082;52.822;6.666;2023-06-14T10:50:09;0.70;;;0.40;;
55210;SDS011;41082;52.822;6.666;2023-06-14T10:52:39;2.92;;;0.50;;
55210;SDS011;41082;52.822;6.666;2023-06-14T10:55:13;4.10;;;0.50;;
55210;SDS011;41082;52.822;6.666;2023-06-14T10:57:41;1.58;;;0.40;;
55210;SDS011;41082;52.822;6.666;2023-06-14T11:00:08;1.95;;;0.40;;
55210;SDS011;41082;52.822;6.666;2023-06-14T11:02:45;2.20;;;0.40;;
55210;SDS011;41082;52.822;6.666;2023-06-14T11:05:19;2.40;;;0.30;;
55210;SDS011;41082;52.822;6.666;2023-06-14T11:13:01;1.30;;;0.40;;
55210;SDS011;41082;52.822;6.666;2023-06-14T11:15:31;2.72;;;0.40;;
55210;SDS011;41082;52.822;6.666;2023-06-14T11:18:05;2.30;;;0.40;;
55210;SDS011;41082;52.822;6.666;2023-06-14T11:20:32;2.75;;;0.40;;
55210;SDS011;41082;52.822;6.666;2023-06-14T11:22:59;1.52;;;0.40;;
55210;SDS011;41082;52.822;6.666;2023-06-14T11:25:25;4.15;;;0.30;;
55210;SDS011;41082;52.822;6.666;2023-06-14T11:27:53;2.08;;;0.57;;
55210;SDS011;41082;52.822;6.666;2023-06-14T11:30:19;3.20;;;0.47;;
55210;SDS011;41082;52.822;6.666;2023-06-14T11:32:46;0.73;;;0.30;;
55210;SDS011;41082;52.822;6.666;2023-06-14T11:35:16;5.82;;;0.73;;
55210;SDS011;41082;52.822;6.666;2023-06-14T11:37:42;2.70;;;0.40;;
55210;SDS011;41082;52.822;6.666;2023-06-14T11:40:09;1.52;;;0.30;;
55210;SDS011;41082;52.822;6.666;2023-06-14T11:42:37;2.72;;;0.30;;
55210;SDS011;41082;52.822;6.666;2023-06-14T11:45:04;3.13;;;0.40;;
55210;SDS011;41082;52.822;6.666;2023-06-14T11:47:33;5.55;;;0.30;;
55210;SDS011;41082;52.822;6.666;2023-06-14T11:49:59;1.98;;;0.30;;
55210;SDS011;41082;52.822;6.666;2023-06-14T11:52:25;3.13;;;0.38;;
55210;SDS011;41082;52.822;6.666;2023-06-14T11:54:51;0.95;;;0.30;;
55210;SDS011;41082;52.822;6.666;2023-06-14T11:57:18;1.85;;;0.30;;
55210;SDS011;41082;52.822;6.666;2023-06-14T11:59:44;3.58;;;0.30;;
55210;SDS011;41082;52.822;6.666;2023-06-14T12:02:19;2.17;;;0.40;;
55210;SDS011;41082;52.822;6.666;2023-06-14T12:04:47;4.20;;;0.30;;
55210;SDS011;41082;52.822;6.666;2023-06-14T12:07:16;2.67;;;0.40;;
55210;SDS011;41082;52.822;6.666;2023-06-14T12:12:16;5.70;;;0.43;;
55210;SDS011;41082;52.822;6.666;2023-06-14T12:14:42;5.90;;;0.50;;
55210;SDS011;41082;52.822;6.666;2023-06-14T12:17:08;1.58;;;0.50;;
55210;SDS011;41082;52.822;6.666;2023-06-14T12:19:40;11.77;;;0.85;;
55210;SDS011;41082;52.822;6.666;2023-06-14T12:22:09;1.50;;;0.30;;
55210;SDS011;41082;52.822;6.666;2023-06-14T12:24:35;5.13;;;0.40;;
55210;SDS011;41082;52.822;6.666;2023-06-14T12:27:01;4.82;;;0.40;;
55210;SDS011;41082;52.822;6.666;2023-06-14T12:29:30;5.78;;;1.25;;
55210;SDS011;41082;52.822;6.666;2023-06-14T12:31:56;3.65;;;0.60;;
55210;SDS011;41082;52.822;6.666;2023-06-14T12:34:22;1.98;;;0.38;;
55210;SDS011;41082;52.822;6.666;2023-06-14T12:36:54;2.65;;;0.45;;
55210;SDS011;41082;52.822;6.666;2023-06-14T12:39:20;3.15;;;0.50;;
55210;SDS011;41082;52.822;6.666;2023-06-14T12:41:47;4.00;;;0.40;;
55210;SDS011;41082;52.822;6.666;2023-06-14T12:44:14;6.15;;;0.60;;
55210;SDS011;41082;52.822;6.666;2023-06-14T12:46:40;2.55;;;0.50;;
55210;SDS011;41082;52.822;6.666;2023-06-14T12:49:08;2.60;;;0.52;;
55210;SDS011;41082;52.822;6.666;2023-06-14T12:51:34;6.28;;;0.60;;
55210;SDS011;41082;52.822;6.666;2023-06-14T12:54:00;1.92;;;0.32;;
55210;SDS011;41082;52.822;6.666;2023-06-14T12:56:26;3.38;;;0.40;;
55210;SDS011;41082;52.822;6.666;2023-06-14T12:58:52;3.15;;;0.50;;
55210;SDS011;41082;52.822;6.666;2023-06-14T13:01:17;1.95;;;0.38;;
55210;SDS011;41082;52.822;6.666;2023-06-14T13:03:43;1.67;;;0.30;;
55210;SDS011;41082;52.822;6.666;2023-06-14T13:06:09;4.10;;;0.40;;
55210;SDS011;41082;52.822;6.666;2023-06-14T13:08:35;1.52;;;0.32;;
55210;SDS011;41082;52.822;6.666;2023-06-14T13:11:00;3.72;;;0.40;;
55210;SDS011;41082;52.822;6.666;2023-06-14T13:13:26;3.75;;;0.32;;
55210;SDS011;41082;52.822;6.666;2023-06-14T13:15:52;3.58;;;0.40;;
55210;SDS011;41082;52.822;6.666;2023-06-14T13:18:17;5.30;;;0.60;;
55210;SDS011;41082;52.822;6.666;2023-06-14T13:20:45;1.15;;;0.43;;
55210;SDS011;41082;52.822;6.666;2023-06-14T13:23:11;2.38;;;0.60;;
55210;SDS011;41082;52.822;6.666;2023-06-14T13:25:37;4.05;;;0.60;;
55210;SDS011;41082;52.822;6.666;2023-06-14T13:28:03;8.80;;;0.70;;
55210;SDS011;41082;52.822;6.666;2023-06-14T13:30:30;2.80;;;0.65;;
55210;SDS011;41082;52.822;6.666;2023-06-14T13:32:57;2.13;;;0.70;;
55210;SDS011;41082;52.822;6.666;2023-06-14T13:35:23;1.52;;;0.40;;
55210;SDS011;41082;52.822;6.666;2023-06-14T13:37:49;2.33;;;0.40;;
55210;SDS011;41082;52.822;6.666;2023-06-14T13:40:15;1.80;;;0.50;;
55210;SDS011;41082;52.822;6.666;2023-06-14T13:42:41;1.33;;;0.40;;
55210;SDS011;41082;52.822;6.666;2023-06-14T13:45:07;1.80;;;0.40;;
55210;SDS011;41082;52.822;6.666;2023-06-14T13:47:33;1.10;;;0.30;;
55210;SDS011;41082;52.822;6.666;2023-06-14T13:49:59;1.83;;;0.32;;
55210;SDS011;41082;52.822;6.666;2023-06-14T13:52:25;2.28;;;0.40;;
55210;SDS011;41082;52.822;6.666;2023-06-14T13:54:51;6.22;;;0.90;;
55210;SDS011;41082;52.822;6.666;2023-06-14T13:57:16;1.50;;;0.50;;
55210;SDS011;41082;52.822;6.666;2023-06-14T13:59:43;1.10;;;0.30;;
55210;SDS011;41082;52.822;6.666;2023-06-14T14:02:09;2.50;;;0.50;;
55210;SDS011;41082;52.822;6.666;2023-06-14T14:04:36;3.95;;;0.50;;
55210;SDS011;41082;52.822;6.666;2023-06-14T14:07:02;1.90;;;0.40;;
55210;SDS011;41082;52.822;6.666;2023-06-14T14:09:29;1.17;;;0.40;;
55210;SDS011;41082;52.822;6.666;2023-06-14T14:11:55;2.03;;;0.30;;
55210;SDS011;41082;52.822;6.666;2023-06-14T14:14:21;2.33;;;0.40;;
55210;SDS011;41082;52.822;6.666;2023-06-14T14:16:48;3.50;;;0.50;;
55210;SDS011;41082;52.822;6.666;2023-06-14T14:19:16;2.15;;;0.30;;
55210;SDS011;41082;52.822;6.666;2023-06-14T14:21:43;0.85;;;0.45;;
55210;SDS011;41082;52.822;6.666;2023-06-14T14:24:09;7.38;;;0.47;;
55210;SDS011;41082;52.822;6.666;2023-06-14T14:26:35;1.60;;;0.38;;
55210;SDS011;41082;52.822;6.666;2023-06-14T14:29:01;3.42;;;0.40;;
55210;SDS011;41082;52.822;6.666;2023-06-14T14:31:28;2.60;;;0.40;;
55210;SDS011;41082;52.822;6.666;2023-06-14T14:33:53;1.63;;;0.50;;
55210;SDS011;41082;52.822;6.666;2023-06-14T14:36:19;2.03;;;0.40;;
55210;SDS011;41082;52.822;6.666;2023-06-14T14:38:45;2.55;;;0.40;;
55210;SDS011;41082;52.822;6.666;2023-06-14T14:41:12;1.15;;;0.40;;
55210;SDS011;41082;52.822;6.666;2023-06-14T14:43:37;0.70;;;0.30;;
55210;SDS011;41082;52.822;6.666;2023-06-14T14:46:03;3.85;;;0.40;;
55210;SDS011;41082;52.822;6.666;2023-06-14T14:48:29;2.08;;;0.40;;
55210;SDS011;41082;52.822;6.666;2023-06-14T14:50:54;1.95;;;0.40;;
55210;SDS011;41082;52.822;6.666;2023-06-14T14:53:20;5.07;;;0.60;;
55210;SDS011;41082;52.822;6.666;2023-06-14T14:55:46;1.30;;;0.50;;
55210;SDS011;41082;52.822;6.666;2023-06-14T14:58:12;2.00;;;0.50;;
55210;SDS011;41082;52.822;6.666;2023-06-14T15:00:38;3.28;;;0.50;;
55210;SDS011;41082;52.822;6.666;2023-06-14T15:03:03;2.03;;;0.50;;
55210;SDS011;41082;52.822;6.666;2023-06-14T15:05:30;1.13;;;0.50;;
55210;SDS011;41082;52.822;6.666;2023-06-14T15:07:55;3.20;;;0.60;;
55210;SDS011;41082;52.822;6.666;2023-06-14T15:10:21;4.20;;;0.50;;